KNRB/NRB METAR and TAF weather

Enter ICAO airport designator
Station Type Date Time Source
KNRB METAR 2019/04/25 09:52 UTC NOAA

KNRB 250952Z 21004KT 10SM SCT250 18/17 A2997 RMK AO2 SLP148 T01780167


Station Type Date Time Source
KNRB Decoded METAR 2019/04/25 09:52 UTC NOAA

MAYPORT NAVAL AIR FACILITY, FL, United States (KNRB) 30-24N 81-25W 4M
Apr 25, 2019 - 05:52 AM EDT / 2019.04.25 0952 UTC
Wind: from the SSW (210 degrees) at 5 MPH (4 KT):0
Visibility: 10 mile(s):0
Sky conditions: partly cloudy
Temperature: 64.0 F (17.8 C)
Dew Point: 62.1 F (16.7 C)
Relative Humidity: 93%
Pressure (altimeter): 29.97 in. Hg (1014 hPa)
ob: KNRB 250952Z 21004KT 10SM SCT250 18/17 A2997 RMK AO2 SLP148 T01780167
cycle: 10

Station Type Date Time Source
KNRB TAF 2019/04/25 07:18 UTC NOAA

TAF KNRB 2507/2607 VRB06KT 9999 FEW150 SCT250 QNH2992INS
FM251500 18006KT 9999 SCT040 SCT150 BKN250 QNH2990INS
FM252100 15009KT 9999 SCT040 SCT150 BKN250 QNH2986INS
FM260300 19010G15KT 9999 BKN030 OVC150 QNH2983INS AUTOMATED SENSOR METWATCH 2307 TIL 2309 T19/2510Z T30/2519Z FN00213

Example: see airport list